Time;durP1;ratioP1;P1;durP2;ratioP2;P2;SDS_P1;SDS_P2;PMS_P1;PMS_P2;Temp;Humidity;BMP_temperature;BMP_pressure;BME280_temperature;BME280_humidity;BME280_pressure;Samples;Min_cycle;Max_cycle;Signal;HPM_P1;HPM_P2
2023/10/26 00:02:11;;;;;;;112.33;37.13;;;;;;;;;;5051489;28;20052;-62
2023/10/26 00:04:37;;;;;;;134.63;40.73;;;;;;;;;;5051518;28;20049;-62
2023/10/26 00:07:04;;;;;;;130.27;38.73;;;;;;;;;;5051539;28;20104;-62
2023/10/26 00:09:30;;;;;;;132.47;39.87;;;;;;;;;;5062990;28;20059;-63
2023/10/26 00:11:56;;;;;;;151.63;43.40;;;;;;;;;;5069614;28;20049;-63
2023/10/26 00:14:22;;;;;;;159.70;43.77;;;;;;;;;;5071476;28;20090;-62
2023/10/26 00:16:48;;;;;;;74.43;32.17;;;;;;;;;;5071920;28;20094;-62
2023/10/26 00:19:14;;;;;;;103.87;35.60;;;;;;;;;;5070871;28;20053;-62
2023/10/26 00:21:41;;;;;;;123.70;38.63;;;;;;;;;;5057190;28;20063;-62
2023/10/26 00:24:07;;;;;;;86.57;33.83;;;;;;;;;;5069998;28;20059;-63
2023/10/26 00:26:33;;;;;;;160.10;45.03;;;;;;;;;;5066657;28;20048;-63
2023/10/26 00:28:59;;;;;;;81.67;31.73;;;;;;;;;;5051280;28;20084;-62
2023/10/26 00:31:25;;;;;;;161.57;44.90;;;;;;;;;;5051387;28;20099;-62
2023/10/26 00:33:51;;;;;;;152.70;42.20;;;;;;;;;;5050496;28;20131;-62
2023/10/26 00:36:17;;;;;;;141.43;42.20;;;;;;;;;;5069507;28;20045;-62
2023/10/26 00:38:43;;;;;;;174.97;46.43;;;;;;;;;;5070224;28;20049;-63
2023/10/26 00:41:09;;;;;;;103.73;37.13;;;;;;;;;;5070846;28;20059;-62
2023/10/26 00:43:35;;;;;;;135.17;43.20;;;;;;;;;;5070908;28;20410;-63
2023/10/26 00:46:01;;;;;;;133.37;43.33;;;;;;;;;;5071222;28;20097;-63
2023/10/26 00:48:27;;;;;;;88.77;37.30;;;;;;;;;;5069983;28;20071;-62
2023/10/26 00:50:53;;;;;;;126.23;41.50;;;;;;;;;;5053779;28;20099;-63
2023/10/26 00:53:20;;;;;;;146.10;44.13;;;;;;;;;;5070635;28;20131;-62
2023/10/26 00:55:47;;;;;;;111.37;39.33;;;;;;;;;;5068249;28;20083;-63
2023/10/26 00:58:13;;;;;;;93.77;35.40;;;;;;;;;;5069207;28;20072;-62
2023/10/26 01:00:39;;;;;;;113.07;40.77;;;;;;;;;;5070830;28;20044;-62
2023/10/26 01:03:05;;;;;;;93.40;36.70;;;;;;;;;;5070505;28;20120;-63
2023/10/26 01:05:31;;;;;;;91.00;35.90;;;;;;;;;;5069736;28;20483;-62
2023/10/26 01:07:57;;;;;;;122.80;41.70;;;;;;;;;;5070634;28;20040;-62
2023/10/26 01:10:24;;;;;;;100.27;38.47;;;;;;;;;;5070544;28;20044;-62
2023/10/26 01:12:50;;;;;;;108.47;39.43;;;;;;;;;;5070383;28;20044;-62
2023/10/26 01:15:16;;;;;;;119.50;41.50;;;;;;;;;;5068266;28;20522;-62
2023/10/26 01:17:42;;;;;;;127.63;42.00;;;;;;;;;;5069666;28;20127;-62
2023/10/26 01:20:08;;;;;;;176.27;49.60;;;;;;;;;;5070031;28;20056;-63
2023/10/26 01:22:34;;;;;;;134.90;43.53;;;;;;;;;;5069952;28;20055;-62
2023/10/26 01:25:00;;;;;;;154.03;45.00;;;;;;;;;;5058262;28;20078;-62
2023/10/26 01:27:27;;;;;;;204.47;52.00;;;;;;;;;;5049923;28;20051;-62
2023/10/26 01:29:52;;;;;;;193.73;52.17;;;;;;;;;;5050989;28;20045;-63
2023/10/26 01:32:20;;;;;;;149.53;44.70;;;;;;;;;;5070245;28;20109;-62
2023/10/26 01:34:46;;;;;;;90.53;32.77;;;;;;;;;;5070041;28;20075;-63
2023/10/26 01:37:12;;;;;;;143.83;43.83;;;;;;;;;;5070284;28;20072;-62
2023/10/26 01:39:38;;;;;;;165.60;45.70;;;;;;;;;;5069891;28;20053;-62
2023/10/26 01:42:09;;;;;;;165.47;47.23;;;;;;;;;;5069589;28;20048;-62
2023/10/26 01:44:35;;;;;;;164.70;47.37;;;;;;;;;;5069177;28;20074;-62
2023/10/26 01:47:01;;;;;;;163.43;48.10;;;;;;;;;;5049357;28;20562;-62
2023/10/26 01:49:27;;;;;;;243.50;56.07;;;;;;;;;;5049903;28;20124;-62
2023/10/26 01:51:53;;;;;;;177.50;49.50;;;;;;;;;;5050369;28;20487;-62
2023/10/26 01:54:19;;;;;;;102.57;38.43;;;;;;;;;;5055504;28;20036;-62
2023/10/26 01:56:45;;;;;;;125.20;40.03;;;;;;;;;;5057944;28;20044;-62
2023/10/26 01:59:11;;;;;;;137.37;42.23;;;;;;;;;;5049732;28;20049;-62
2023/10/26 02:01:37;;;;;;;173.10;51.17;;;;;;;;;;5049508;28;20033;-62
2023/10/26 02:04:03;;;;;;;148.17;47.03;;;;;;;;;;5050090;28;20474;-63
2023/10/26 02:06:29;;;;;;;114.43;40.37;;;;;;;;;;5049712;28;20041;-62
2023/10/26 02:08:55;;;;;;;123.27;43.40;;;;;;;;;;5049459;28;20041;-62
2023/10/26 02:11:21;;;;;;;141.10;44.03;;;;;;;;;;5065770;28;20449;-63
2023/10/26 02:13:47;;;;;;;155.90;47.77;;;;;;;;;;5069862;28;20048;-62
2023/10/26 02:16:13;;;;;;;160.90;50.50;;;;;;;;;;5069620;28;20044;-63
2023/10/26 02:18:40;;;;;;;168.63;49.30;;;;;;;;;;5069603;28;20057;-63
2023/10/26 02:21:06;;;;;;;136.27;46.43;;;;;;;;;;5069702;28;20048;-62
2023/10/26 02:23:32;;;;;;;132.67;44.33;;;;;;;;;;5068500;28;20070;-62
2023/10/26 02:25:58;;;;;;;164.33;50.10;;;;;;;;;;5066543;28;20051;-62
2023/10/26 02:28:25;;;;;;;161.07;50.90;;;;;;;;;;5069377;28;20052;-62
2023/10/26 02:30:51;;;;;;;144.60;47.43;;;;;;;;;;5069103;28;20053;-62
2023/10/26 02:33:17;;;;;;;197.33;54.60;;;;;;;;;;5069114;28;20044;-62
2023/10/26 02:35:43;;;;;;;157.60;50.27;;;;;;;;;;5069381;28;20132;-62
2023/10/26 02:38:09;;;;;;;157.30;49.83;;;;;;;;;;5069156;28;20074;-63
2023/10/26 02:40:36;;;;;;;146.43;49.07;;;;;;;;;;5054936;28;20092;-62
2023/10/26 02:43:03;;;;;;;164.90;51.10;;;;;;;;;;5049639;28;20124;-62
2023/10/26 02:45:29;;;;;;;161.43;51.03;;;;;;;;;;5049042;28;20056;-62
2023/10/26 02:47:55;;;;;;;143.63;46.57;;;;;;;;;;5055933;28;20045;-62
2023/10/26 02:50:21;;;;;;;103.67;41.00;;;;;;;;;;5048819;28;20045;-62
2023/10/26 02:52:47;;;;;;;154.93;51.50;;;;;;;;;;5050884;28;20045;-62
2023/10/26 02:55:13;;;;;;;159.97;50.73;;;;;;;;;;5049293;28;20415;-62
2023/10/26 02:57:39;;;;;;;134.57;47.90;;;;;;;;;;5061162;28;20053;-62
2023/10/26 03:00:05;;;;;;;147.70;49.80;;;;;;;;;;5069232;28;20048;-62
2023/10/26 03:02:32;;;;;;;111.83;44.33;;;;;;;;;;5068961;28;20090;-62
2023/10/26 03:04:58;;;;;;;193.67;55.60;;;;;;;;;;5068865;28;20044;-62
2023/10/26 03:07:24;;;;;;;148.27;51.00;;;;;;;;;;5064859;28;20419;-62
2023/10/26 03:09:50;;;;;;;194.57;56.77;;;;;;;;;;5049344;28;20575;-63
2023/10/26 03:12:17;;;;;;;201.90;59.20;;;;;;;;;;5049247;28;20045;-62
2023/10/26 03:14:43;;;;;;;137.47;48.37;;;;;;;;;;5049125;28;20056;-62
2023/10/26 03:17:09;;;;;;;200.07;58.60;;;;;;;;;;5048743;28;20049;-62
2023/10/26 03:19:35;;;;;;;209.17;59.17;;;;;;;;;;5048914;28;20064;-62
2023/10/26 03:22:01;;;;;;;224.97;60.27;;;;;;;;;;5049048;28;20132;-63
2023/10/26 03:24:27;;;;;;;221.40;61.40;;;;;;;;;;5061707;28;20471;-62
2023/10/26 03:26:53;;;;;;;293.47;68.47;;;;;;;;;;5048839;28;20049;-62
2023/10/26 03:29:21;;;;;;;174.23;53.33;;;;;;;;;;5049136;28;20128;-62
2023/10/26 03:31:47;;;;;;;200.53;56.33;;;;;;;;;;5049115;28;20049;-62
2023/10/26 03:34:13;;;;;;;146.00;49.73;;;;;;;;;;5048649;28;20045;-63
2023/10/26 03:36:39;;;;;;;287.40;65.83;;;;;;;;;;5053053;28;20044;-62
2023/10/26 03:39:05;;;;;;;257.63;66.00;;;;;;;;;;5047220;28;20049;-63
2023/10/26 03:41:31;;;;;;;174.97;54.97;;;;;;;;;;5050509;28;20410;-62
2023/10/26 03:43:57;;;;;;;231.07;62.47;;;;;;;;;;5051766;28;20045;-62
2023/10/26 03:46:23;;;;;;;198.33;58.23;;;;;;;;;;5052553;28;20056;-62
2023/10/26 03:48:50;;;;;;;200.87;60.43;;;;;;;;;;5052127;28;20453;-62
2023/10/26 03:51:16;;;;;;;326.80;71.17;;;;;;;;;;5052287;28;20053;-62
2023/10/26 03:53:42;;;;;;;376.77;78.43;;;;;;;;;;5065088;28;20047;-62
2023/10/26 03:56:08;;;;;;;329.00;75.53;;;;;;;;;;5053279;28;20037;-63
2023/10/26 03:58:34;;;;;;;340.73;75.20;;;;;;;;;;5051618;28;20079;-62
2023/10/26 04:01:00;;;;;;;300.83;71.87;;;;;;;;;;5052159;28;20084;-62
2023/10/26 04:03:27;;;;;;;343.43;75.90;;;;;;;;;;5052142;28;20575;-62
2023/10/26 04:05:53;;;;;;;288.63;68.97;;;;;;;;;;5051724;28;20048;-62
2023/10/26 04:08:19;;;;;;;312.00;72.93;;;;;;;;;;5071319;28;20079;-62
2023/10/26 04:10:45;;;;;;;351.57;79.17;;;;;;;;;;5071520;28;20425;-62
2023/10/26 04:13:11;;;;;;;389.57;83.20;;;;;;;;;;5071753;28;20055;-63
2023/10/26 04:15:37;;;;;;;333.77;77.10;;;;;;;;;;5071585;28;20047;-62
2023/10/26 04:18:06;;;;;;;455.97;89.17;;;;;;;;;;5071624;28;20080;-62
2023/10/26 04:20:32;;;;;;;425.57;87.10;;;;;;;;;;5071363;28;20079;-62
2023/10/26 04:22:58;;;;;;;353.17;77.37;;;;;;;;;;5051502;28;20102;-62
2023/10/26 04:25:27;;;;;;;174.50;55.50;;;;;;;;;;5051046;28;20058;-63
2023/10/26 04:27:55;;;;;;;211.93;59.93;;;;;;;;;;5051486;28;20049;-62
2023/10/26 04:30:21;;;;;;;184.83;57.10;;;;;;;;;;5051418;28;20047;-63
2023/10/26 04:32:47;;;;;;;217.23;58.97;;;;;;;;;;5051532;28;20141;-63
2023/10/26 04:35:13;;;;;;;234.00;61.97;;;;;;;;;;5050555;28;20106;-64
2023/10/26 04:37:39;;;;;;;283.50;69.57;;;;;;;;;;5051126;28;20048;-62
2023/10/26 04:40:06;;;;;;;161.73;53.73;;;;;;;;;;5051089;28;20427;-63
2023/10/26 04:42:32;;;;;;;166.10;54.47;;;;;;;;;;5050941;28;20045;-62
2023/10/26 04:44:58;;;;;;;219.63;62.37;;;;;;;;;;5050998;28;20051;-62
2023/10/26 04:47:24;;;;;;;262.63;66.20;;;;;;;;;;5050844;28;20045;-62
2023/10/26 04:49:50;;;;;;;356.40;79.20;;;;;;;;;;5050629;28;20045;-62
2023/10/26 04:52:18;;;;;;;383.57;80.80;;;;;;;;;;5049818;28;20518;-62
2023/10/26 04:54:45;;;;;;;369.83;81.27;;;;;;;;;;5050950;28;20556;-62
2023/10/26 04:57:11;;;;;;;230.90;63.53;;;;;;;;;;5051110;28;20055;-62
2023/10/26 04:59:37;;;;;;;419.07;81.93;;;;;;;;;;5050877;28;20041;-62
2023/10/26 05:02:03;;;;;;;446.00;83.70;;;;;;;;;;5061227;28;20049;-62
2023/10/26 05:04:28;;;;;;;689.83;110.37;;;;;;;;;;5070709;28;20585;-62
2023/10/26 05:06:54;;;;;;;687.23;112.93;;;;;;;;;;5067430;28;20040;-62
2023/10/26 05:09:20;;;;;;;213.10;60.10;;;;;;;;;;5069908;28;20041;-62
2023/10/26 05:11:46;;;;;;;245.27;60.97;;;;;;;;;;5049765;28;20056;-62
2023/10/26 05:14:14;;;;;;;322.57;73.80;;;;;;;;;;5050385;28;20486;-62
2023/10/26 05:16:41;;;;;;;816.47;113.03;;;;;;;;;;5050357;28;20411;-62
2023/10/26 05:19:07;;;;;;;549.30;96.57;;;;;;;;;;5050996;28;20109;-62
2023/10/26 05:21:33;;;;;;;590.87;102.47;;;;;;;;;;5050280;28;20064;-62
2023/10/26 05:23:59;;;;;;;759.03;117.17;;;;;;;;;;5050384;28;20680;-62
2023/10/26 05:26:25;;;;;;;217.33;60.33;;;;;;;;;;5050312;28;20037;-62
2023/10/26 05:28:51;;;;;;;180.90;52.63;;;;;;;;;;5050133;28;20037;-62
2023/10/26 05:31:17;;;;;;;1074.90;138.50;;;;;;;;;;5061357;28;20486;-62
2023/10/26 05:33:43;;;;;;;963.63;132.90;;;;;;;;;;5050371;28;20098;-62
2023/10/26 05:36:09;;;;;;;567.57;93.97;;;;;;;;;;5050569;28;20044;-62
2023/10/26 05:38:35;;;;;;;582.80;93.87;;;;;;;;;;5049815;28;20071;-62
2023/10/26 05:41:01;;;;;;;961.07;129.63;;;;;;;;;;5050552;28;20499;-62
2023/10/26 05:43:27;;;;;;;159.17;44.90;;;;;;;;;;5050366;28;20087;-63
2023/10/26 05:45:54;;;;;;;935.17;124.87;;;;;;;;;;5050910;28;20088;-62
2023/10/26 05:48:23;;;;;;;1289.67;154.83;;;;;;;;;;5050012;28;20431;-62
2023/10/26 05:50:49;;;;;;;797.93;117.27;;;;;;;;;;5050435;28;20056;-62
2023/10/26 05:53:15;;;;;;;700.10;109.93;;;;;;;;;;5049691;28;20040;-62
2023/10/26 05:55:41;;;;;;;1129.97;130.57;;;;;;;;;;5049942;28;20098;-62
2023/10/26 05:58:09;;;;;;;1195.60;129.43;;;;;;;;;;5050051;28;20102;-62
2023/10/26 06:00:35;;;;;;;1055.40;114.87;;;;;;;;;;5049730;28;20140;-62
2023/10/26 06:03:01;;;;;;;1077.57;112.90;;;;;;;;;;5056668;28;20047;-62
2023/10/26 06:05:27;;;;;;;1096.93;109.00;;;;;;;;;;5049351;28;20049;-62
2023/10/26 06:07:53;;;;;;;589.03;69.43;;;;;;;;;;5048926;28;20053;-62
2023/10/26 06:10:19;;;;;;;431.10;57.90;;;;;;;;;;5054677;28;20043;-62
2023/10/26 06:12:45;;;;;;;729.73;92.23;;;;;;;;;;5049634;28;20025;-63
2023/10/26 06:15:11;;;;;;;474.10;63.23;;;;;;;;;;5049850;28;20471;-62
2023/10/26 06:17:37;;;;;;;801.60;103.20;;;;;;;;;;5049971;28;20075;-63
2023/10/26 06:20:03;;;;;;;1011.90;116.47;;;;;;;;;;5048324;28;20642;-63
2023/10/26 06:22:29;;;;;;;1169.73;142.23;;;;;;;;;;5049199;28;20509;-62
2023/10/26 06:24:55;;;;;;;961.87;118.23;;;;;;;;;;5059294;28;20059;-62
2023/10/26 06:27:21;;;;;;;656.77;89.30;;;;;;;;;;5060702;28;20033;-62
2023/10/26 06:29:51;;;;;;;880.33;111.07;;;;;;;;;;5052076;28;20124;-63
2023/10/26 06:32:17;;;;;;;754.63;104.53;;;;;;;;;;5068701;28;20045;-63
2023/10/26 06:34:43;;;;;;;617.70;88.27;;;;;;;;;;5061355;28;20056;-62
2023/10/26 06:37:09;;;;;;;306.83;60.43;;;;;;;;;;5063546;28;20052;-62
2023/10/26 06:39:35;;;;;;;541.03;87.60;;;;;;;;;;5058221;28;20610;-62
2023/10/26 06:42:01;;;;;;;417.23;68.07;;;;;;;;;;5049185;28;20041;-62
2023/10/26 06:44:27;;;;;;;411.30;72.03;;;;;;;;;;5049194;28;20057;-62
2023/10/26 06:46:53;;;;;;;454.27;72.03;;;;;;;;;;5049204;28;20041;-62
2023/10/26 06:49:19;;;;;;;394.20;68.47;;;;;;;;;;5048739;28;20045;-62
2023/10/26 06:51:45;;;;;;;1007.40;129.40;;;;;;;;;;5048689;28;20041;-62
2023/10/26 06:54:11;;;;;;;450.17;71.83;;;;;;;;;;5049096;28;20056;-62
2023/10/26 06:56:37;;;;;;;860.17;112.90;;;;;;;;;;5047435;28;20049;-62
2023/10/26 06:59:06;;;;;;;484.63;77.60;;;;;;;;;;5047515;28;20053;-62
2023/10/26 07:01:33;;;;;;;680.97;96.87;;;;;;;;;;5049946;28;20621;-63
2023/10/26 07:04:00;;;;;;;471.90;74.97;;;;;;;;;;5048306;28;20057;-62
2023/10/26 07:06:26;;;;;;;456.27;77.67;;;;;;;;;;5055860;28;20033;-62
2023/10/26 07:08:52;;;;;;;336.40;62.20;;;;;;;;;;5049259;28;20044;-62
2023/10/26 07:11:18;;;;;;;425.43;74.63;;;;;;;;;;5058975;28;20052;-62
2023/10/26 07:13:45;;;;;;;374.70;67.70;;;;;;;;;;5057488;28;20045;-63
2023/10/26 07:16:11;;;;;;;387.90;69.00;;;;;;;;;;5064772;28;20992;-62
2023/10/26 07:18:37;;;;;;;334.60;65.10;;;;;;;;;;5070696;28;20048;-62
2023/10/26 07:21:06;;;;;;;507.83;85.07;;;;;;;;;;5052223;28;20048;-62
2023/10/26 07:23:33;;;;;;;628.47;96.67;;;;;;;;;;5062322;28;20048;-62
2023/10/26 07:25:59;;;;;;;693.33;104.40;;;;;;;;;;5052460;28;20077;-62
2023/10/26 07:28:25;;;;;;;687.80;102.10;;;;;;;;;;5051658;28;20072;-63
2023/10/26 07:30:51;;;;;;;627.83;96.03;;;;;;;;;;5062571;28;20032;-62
2023/10/26 07:33:20;;;;;;;565.47;88.53;;;;;;;;;;5052347;28;20052;-62
2023/10/26 07:35:53;;;;;;;566.80;86.67;;;;;;;;;;5052255;28;20685;-62
2023/10/26 07:38:19;;;;;;;577.43;90.83;;;;;;;;;;5054543;28;20052;-62
2023/10/26 07:40:48;;;;;;;488.30;78.93;;;;;;;;;;5060475;28;20406;-62
2023/10/26 07:43:14;;;;;;;522.17;79.93;;;;;;;;;;5071930;28;20041;-63
2023/10/26 07:45:40;;;;;;;565.10;86.83;;;;;;;;;;5068268;28;20076;-63
2023/10/26 07:48:06;;;;;;;652.17;98.50;;;;;;;;;;5072239;28;20129;-62
2023/10/26 07:50:32;;;;;;;610.17;96.00;;;;;;;;;;5058759;28;20079;-62
2023/10/26 07:52:58;;;;;;;868.40;120.53;;;;;;;;;;5051928;28;20045;-62
2023/10/26 07:55:24;;;;;;;806.20;121.80;;;;;;;;;;5051380;28;20052;-63
2023/10/26 07:57:50;;;;;;;554.17;86.70;;;;;;;;;;5052116;28;20521;-62
2023/10/26 08:00:17;;;;;;;824.30;116.70;;;;;;;;;;5067205;28;20048;-62
2023/10/26 08:02:43;;;;;;;960.23;131.87;;;;;;;;;;5071091;28;20044;-62
2023/10/26 08:05:09;;;;;;;670.13;109.00;;;;;;;;;;5059562;28;20127;-62
2023/10/26 08:07:36;;;;;;;646.00;96.83;;;;;;;;;;5051413;28;20057;-62
2023/10/26 08:10:02;;;;;;;754.63;109.13;;;;;;;;;;5070034;28;20044;-63
2023/10/26 08:12:28;;;;;;;727.40;106.57;;;;;;;;;;5059276;28;20053;-62
2023/10/26 08:14:56;;;;;;;406.60;77.13;;;;;;;;;;5066565;28;20048;-63
2023/10/26 08:17:22;;;;;;;797.13;117.93;;;;;;;;;;5060903;28;20087;-63
2023/10/26 08:19:52;;;;;;;663.90;109.70;;;;;;;;;;5051381;28;20053;-65
2023/10/26 08:22:20;;;;;;;838.30;130.23;;;;;;;;;;5051680;28;20040;-63
2023/10/26 08:24:46;;;;;;;762.10;113.77;;;;;;;;;;5060877;28;20053;-63
2023/10/26 08:27:12;;;;;;;768.83;123.67;;;;;;;;;;5067215;28;20179;-62
2023/10/26 08:29:38;;;;;;;767.37;118.67;;;;;;;;;;5055809;28;20040;-63
2023/10/26 08:32:04;;;;;;;523.30;97.50;;;;;;;;;;5064774;28;20090;-63
2023/10/26 08:34:30;;;;;;;866.80;132.33;;;;;;;;;;5055806;28;20091;-63
2023/10/26 08:36:56;;;;;;;546.57;97.30;;;;;;;;;;5058531;28;20048;-62
2023/10/26 08:39:22;;;;;;;735.70;117.83;;;;;;;;;;5055501;28;20423;-63
2023/10/26 08:41:58;;;;;;;623.87;105.40;;;;;;;;;;5069610;28;20975;-62
2023/10/26 08:44:26;;;;;;;537.43;98.50;;;;;;;;;;5067280;28;20040;-62
2023/10/26 08:46:54;;;;;;;616.43;102.13;;;;;;;;;;5066673;28;20051;-63
2023/10/26 08:49:22;;;;;;;335.10;76.60;;;;;;;;;;5069815;28;20451;-63
2023/10/26 08:51:48;;;;;;;403.47;81.70;;;;;;;;;;5054119;28;20132;-62
2023/10/26 08:54:14;;;;;;;411.67;85.63;;;;;;;;;;5064257;28;20773;-63
2023/10/26 08:56:40;;;;;;;394.47;81.17;;;;;;;;;;5056293;28;20075;-62
2023/10/26 08:59:06;;;;;;;315.27;72.30;;;;;;;;;;5068918;28;20504;-62
2023/10/26 09:01:32;;;;;;;208.67;59.03;;;;;;;;;;5069794;28;20127;-63
2023/10/26 09:03:58;;;;;;;183.13;56.87;;;;;;;;;;5062752;28;20114;-62
2023/10/26 09:06:24;;;;;;;191.60;55.83;;;;;;;;;;5059144;28;20546;-63
2023/10/26 09:09:00;;;;;;;141.20;50.33;;;;;;;;;;5051048;28;20045;-63
2023/10/26 09:11:26;;;;;;;156.20;52.77;;;;;;;;;;5055616;28;20119;-62
2023/10/26 09:13:52;;;;;;;172.13;54.03;;;;;;;;;;5067669;28;20481;-63
2023/10/26 09:16:19;;;;;;;208.13;56.80;;;;;;;;;;5055408;28;20140;-63
2023/10/26 09:18:51;;;;;;;123.97;47.50;;;;;;;;;;5057408;28;20049;-62
2023/10/26 09:21:17;;;;;;;200.13;56.40;;;;;;;;;;5061634;28;20040;-62
2023/10/26 09:23:45;;;;;;;177.20;52.43;;;;;;;;;;5067965;28;20479;-62
2023/10/26 09:26:11;;;;;;;145.97;52.47;;;;;;;;;;5064922;28;20461;-62
2023/10/26 09:28:56;;;;;;;69.53;36.50;;;;;;;;;;5069215;28;20049;-62
2023/10/26 09:31:23;;;;;;;103.47;42.63;;;;;;;;;;5067607;28;20037;-62
2023/10/26 09:33:49;;;;;;;91.13;40.50;;;;;;;;;;5067383;28;20048;-62
2023/10/26 09:36:19;;;;;;;108.60;42.83;;;;;;;;;;5067954;28;20052;-63
2023/10/26 09:38:47;;;;;;;93.70;40.47;;;;;;;;;;5067405;28;20048;-63
2023/10/26 09:41:15;;;;;;;103.90;41.77;;;;;;;;;;5068836;28;20132;-62
2023/10/26 09:43:42;;;;;;;59.83;33.33;;;;;;;;;;5065862;28;20040;-62
2023/10/26 09:46:08;;;;;;;84.33;35.30;;;;;;;;;;5062656;28;20045;-62
2023/10/26 09:48:34;;;;;;;69.20;33.37;;;;;;;;;;5053185;28;20045;-62
2023/10/26 09:51:01;;;;;;;66.67;32.73;;;;;;;;;;5058697;28;20129;-62
2023/10/26 09:53:34;;;;;;;57.67;30.17;;;;;;;;;;5066560;28;20059;-62
2023/10/26 09:56:01;;;;;;;40.73;27.17;;;;;;;;;;5067661;28;20127;-62
2023/10/26 09:58:29;;;;;;;58.47;31.63;;;;;;;;;;5066871;28;20098;-62
2023/10/26 10:00:55;;;;;;;54.03;29.67;;;;;;;;;;5068319;28;20045;-63
2023/10/26 10:03:21;;;;;;;43.33;25.77;;;;;;;;;;5049442;28;20549;-62
2023/10/26 10:05:49;;;;;;;38.17;25.57;;;;;;;;;;5047860;28;20048;-62
2023/10/26 10:08:35;;;;;;;53.27;30.03;;;;;;;;;;5052304;28;20049;-63
2023/10/26 10:11:17;;;;;;;39.23;27.20;;;;;;;;;;5048712;28;20051;-62
2023/10/26 10:13:43;;;;;;;40.07;25.80;;;;;;;;;;5052217;28;20183;-62
2023/10/26 10:16:28;;;;;;;46.90;28.20;;;;;;;;;;5052329;28;20127;-62
2023/10/26 10:19:16;;;;;;;34.33;24.27;;;;;;;;;;5061952;28;20076;-62
2023/10/26 10:21:42;;;;;;;37.63;24.77;;;;;;;;;;5056180;28;20423;-62
2023/10/26 10:24:08;;;;;;;28.87;22.90;;;;;;;;;;5048197;28;20041;-61
2023/10/26 10:26:53;;;;;;;31.67;22.70;;;;;;;;;;5047473;28;20060;-62
2023/10/26 10:29:21;;;;;;;28.43;21.33;;;;;;;;;;5056221;28;20135;-62
2023/10/26 10:31:47;;;;;;;29.67;23.70;;;;;;;;;;5047655;28;20056;-62
2023/10/26 10:34:17;;;;;;;22.93;20.47;;;;;;;;;;5047530;28;20411;-61
2023/10/26 10:37:01;;;;;;;28.70;23.30;;;;;;;;;;5048779;28;20056;-61
2023/10/26 10:39:27;;;;;;;25.63;20.23;;;;;;;;;;5067412;28;20066;-62
2023/10/26 10:41:53;;;;;;;21.23;18.50;;;;;;;;;;5067807;28;20049;-61
2023/10/26 10:44:20;;;;;;;23.53;19.47;;;;;;;;;;5063873;28;20053;-61
2023/10/26 10:46:49;;;;;;;26.33;19.60;;;;;;;;;;5065144;28;20153;-61
2023/10/26 10:49:16;;;;;;;19.60;17.47;;;;;;;;;;5063284;28;20079;-61
2023/10/26 10:51:43;;;;;;;20.97;15.40;;;;;;;;;;5069190;28;20087;-61
2023/10/26 10:54:11;;;;;;;21.77;14.50;;;;;;;;;;5065907;28;20103;-61
2023/10/26 10:56:37;;;;;;;22.47;15.53;;;;;;;;;;5058771;28;20044;-61
2023/10/26 10:59:16;;;;;;;20.20;16.47;;;;;;;;;;5072308;28;20110;-61
2023/10/26 11:01:42;;;;;;;22.70;13.60;;;;;;;;;;5072153;28;20127;-62
2023/10/26 11:04:10;;;;;;;14.97;12.77;;;;;;;;;;5072438;28;20131;-61
2023/10/26 11:06:43;;;;;;;21.50;16.03;;;;;;;;;;5072339;28;20087;-61
2023/10/26 11:09:20;;;;;;;19.37;15.00;;;;;;;;;;5072307;28;20047;-62
2023/10/26 11:11:46;;;;;;;17.97;13.93;;;;;;;;;;5072251;28;20058;-61
2023/10/26 11:14:12;;;;;;;17.07;15.17;;;;;;;;;;5072370;28;20040;-61
2023/10/26 11:16:38;;;;;;;16.73;14.77;;;;;;;;;;5072312;28;20141;-61
2023/10/26 11:19:05;;;;;;;22.70;16.77;;;;;;;;;;5071632;28;20044;-61
2023/10/26 11:21:31;;;;;;;16.67;13.70;;;;;;;;;;5054437;28;20551;-61
2023/10/26 11:23:57;;;;;;;16.27;12.90;;;;;;;;;;5052286;28;20099;-61
2023/10/26 11:26:23;;;;;;;16.60;11.53;;;;;;;;;;5052239;28;20049;-61
2023/10/26 11:28:49;;;;;;;17.23;11.00;;;;;;;;;;5052039;28;20492;-61
2023/10/26 11:31:15;;;;;;;13.50;9.83;;;;;;;;;;5052111;28;20048;-61
2023/10/26 11:33:42;;;;;;;12.47;9.50;;;;;;;;;;5051897;28;20145;-62
2023/10/26 11:36:12;;;;;;;11.73;9.73;;;;;;;;;;5068131;28;20051;-62
2023/10/26 11:38:51;;;;;;;10.03;8.93;;;;;;;;;;5051939;28;20496;-61
2023/10/26 11:41:23;;;;;;;10.30;8.70;;;;;;;;;;5051662;28;20056;-61
2023/10/26 11:43:49;;;;;;;11.40;9.77;;;;;;;;;;5051720;28;20045;-62
2023/10/26 11:46:15;;;;;;;9.30;8.23;;;;;;;;;;5051781;28;20163;-62
2023/10/26 11:48:41;;;;;;;11.20;8.63;;;;;;;;;;5052150;28;20052;-62
2023/10/26 11:51:08;;;;;;;10.73;9.40;;;;;;;;;;5070068;28;20530;-61
2023/10/26 11:53:35;;;;;;;12.43;9.07;;;;;;;;;;5071503;28;20044;-62
2023/10/26 11:56:01;;;;;;;10.17;8.00;;;;;;;;;;5071685;28;20075;-62
2023/10/26 11:58:27;;;;;;;9.33;7.90;;;;;;;;;;5071455;28;20040;-62
2023/10/26 12:00:53;;;;;;;10.27;7.97;;;;;;;;;;5071476;28;20052;-62
2023/10/26 12:03:19;;;;;;;9.60;7.00;;;;;;;;;;5070028;28;20075;-62
2023/10/26 12:05:45;;;;;;;10.50;7.97;;;;;;;;;;5060435;28;20597;-62
2023/10/26 12:08:11;;;;;;;11.00;8.97;;;;;;;;;;5071667;28;20041;-62
2023/10/26 12:10:40;;;;;;;12.23;10.00;;;;;;;;;;5070851;28;20040;-62
2023/10/26 12:13:06;;;;;;;12.47;9.30;;;;;;;;;;5071320;28;20095;-62
2023/10/26 12:15:33;;;;;;;11.70;8.60;;;;;;;;;;5071300;28;20080;-62
2023/10/26 12:17:59;;;;;;;10.57;7.80;;;;;;;;;;5071089;28;20049;-62
2023/10/26 12:20:25;;;;;;;9.40;7.47;;;;;;;;;;5070730;28;20402;-62
2023/10/26 12:22:52;;;;;;;8.83;6.70;;;;;;;;;;5070867;28;20262;-62
2023/10/26 12:25:18;;;;;;;9.03;7.10;;;;;;;;;;5070897;28;20052;-62
2023/10/26 12:27:44;;;;;;;8.97;7.33;;;;;;;;;;5071132;28;20090;-62
2023/10/26 12:30:10;;;;;;;11.50;7.43;;;;;;;;;;5071216;28;20037;-62
2023/10/26 12:32:36;;;;;;;8.63;6.60;;;;;;;;;;5060193;28;20057;-62
2023/10/26 12:35:02;;;;;;;9.53;7.00;;;;;;;;;;5050625;28;20083;-62
2023/10/26 12:37:28;;;;;;;11.57;7.80;;;;;;;;;;5050695;28;20102;-62
2023/10/26 12:39:55;;;;;;;8.93;6.40;;;;;;;;;;5051111;28;20156;-62
2023/10/26 12:42:23;;;;;;;8.70;6.23;;;;;;;;;;5050674;28;20558;-62
2023/10/26 12:44:49;;;;;;;10.60;6.53;;;;;;;;;;5050411;28;20044;-62
2023/10/26 12:47:15;;;;;;;8.23;6.00;;;;;;;;;;5051046;28;20447;-62
2023/10/26 12:49:41;;;;;;;7.20;5.87;;;;;;;;;;5050765;28;20087;-62
2023/10/26 12:52:07;;;;;;;6.97;6.10;;;;;;;;;;5050532;28;20091;-62
2023/10/26 12:54:33;;;;;;;8.37;6.50;;;;;;;;;;5050509;28;20056;-62
2023/10/26 12:56:59;;;;;;;9.60;6.47;;;;;;;;;;5050581;28;20558;-62
2023/10/26 12:59:25;;;;;;;8.80;6.27;;;;;;;;;;5050404;28;20090;-62
2023/10/26 13:01:51;;;;;;;9.83;6.77;;;;;;;;;;5058815;28;20045;-62
2023/10/26 13:04:17;;;;;;;12.33;6.07;;;;;;;;;;5058631;28;20387;-62
2023/10/26 13:06:43;;;;;;;7.83;6.03;;;;;;;;;;5050023;28;20045;-61
2023/10/26 13:09:09;;;;;;;8.10;6.43;;;;;;;;;;5050799;28;20033;-62
2023/10/26 13:11:35;;;;;;;7.40;6.70;;;;;;;;;;5050244;28;20049;-62
2023/10/26 13:14:01;;;;;;;10.97;6.73;;;;;;;;;;5049548;28;20036;-61
2023/10/26 13:16:27;;;;;;;8.80;6.67;;;;;;;;;;5050506;28;20444;-62
2023/10/26 13:18:53;;;;;;;6.60;5.90;;;;;;;;;;5050488;28;20149;-61
2023/10/26 13:21:19;;;;;;;8.47;6.03;;;;;;;;;;5049954;28;20044;-61
2023/10/26 13:23:45;;;;;;;8.37;7.00;;;;;;;;;;5049917;28;20503;-61
2023/10/26 13:26:11;;;;;;;9.97;7.00;;;;;;;;;;5050147;28;20052;-61
2023/10/26 13:28:37;;;;;;;12.87;7.10;;;;;;;;;;5049860;28;20110;-61
2023/10/26 13:31:03;;;;;;;9.20;7.27;;;;;;;;;;5050242;28;20064;-61
2023/10/26 13:33:29;;;;;;;8.37;7.07;;;;;;;;;;5049715;28;20045;-61
2023/10/26 13:35:55;;;;;;;8.40;6.90;;;;;;;;;;5049832;28;20482;-61
2023/10/26 13:38:20;;;;;;;8.67;6.90;;;;;;;;;;5049824;28;20083;-61
2023/10/26 13:40:47;;;;;;;8.10;6.83;;;;;;;;;;5049767;28;20124;-61
2023/10/26 13:43:16;;;;;;;10.33;7.43;;;;;;;;;;5049781;28;20080;-61
2023/10/26 13:45:45;;;;;;;9.80;7.40;;;;;;;;;;5049485;28;20041;-61
2023/10/26 13:48:11;;;;;;;8.33;6.87;;;;;;;;;;5049688;28;20051;-61
2023/10/26 13:50:39;;;;;;;8.50;7.60;;;;;;;;;;5049406;28;20510;-60
2023/10/26 13:53:05;;;;;;;9.73;7.13;;;;;;;;;;5049408;28;20048;-60
2023/10/26 13:55:37;;;;;;;10.33;7.40;;;;;;;;;;5049312;28;20056;-60
2023/10/26 13:58:05;;;;;;;9.98;6.55;;;;;;;;;;5049777;28;20422;-60
2023/10/26 14:00:31;;;;;;;8.63;6.40;;;;;;;;;;5068911;28;20048;-62
2023/10/26 14:02:57;;;;;;;11.10;6.73;;;;;;;;;;5069421;28;20052;-60
2023/10/26 14:05:23;;;;;;;8.03;6.73;;;;;;;;;;5069172;28;20052;-61
2023/10/26 14:07:49;;;;;;;6.83;5.70;;;;;;;;;;5068682;28;20044;-60
2023/10/26 14:10:15;;;;;;;18.97;6.20;;;;;;;;;;5069148;28;20946;-60